Weather History for Natchez, MS

Change the Weather History Date:

Sunday, December 9, 2012

  Actual Average Record
Temperature  
Mean Temperature 67 °F -  
Max Temperature 75 °F 64 °F 80 °F (1972)
Min Temperature 59 °F 43 °F 21 °F (2006)
Cooling Degree Days 2    
Growing Degree Days 17 (Base 50)    
Moisture  
Dew Point 63 °F    
Average Humidity 88    
Maximum Humidity 100    
Minimum Humidity 73    
Precipitation  
Precipitation 0.19 in - - ()
Sea Level Pressure  
Sea Level Pressure 29.90 in    
Wind  
Wind Speed 8 mph (South)    
Max Wind Speed 14 mph    
Max Gust Speed 30 mph    
Visibility 10 miles    
Events      
Averages and records for this station are not official NWS values.
T = Trace of Precipitation, MM = Missing Value Source: NWS Daily Summary

Daily Weather History Graph

Daily Weather History Graph

Search for Another Location

Airport:

Trip Planner

Search our weather history database for the weather conditions in past years. The results will help you decide how hot, cold, wet, or windy it might be!

Date:

Astronomy

Dec. 09, 2012 Rise Set
Actual Time 6:53 AM CST 5:01 PM CST
Civil Twilight 6:26 AM CST 5:28 PM CST
Nautical Twilight 5:56 AM CST 5:59 PM CST
Astronomical Twilight 5:26 AM CST 6:28 PM CST
Moon 2:38 AM CST (12/9) 1:59 PM CST (12/9)
Length of Visible Light 11h 01m
Length of Day
10h 08m
Waning Crescent, 18% of the Moon is Illuminated
Dec 9
Waning Crescent
Dec 13
New
Dec 19
First Quarter
Dec 28
Full
Jan 4
Last Quarter

Hourly Weather History & Observations

Time (CST) Temp. Dew Point Humidity Pressure Visibility Wind Dir Wind Speed Gust Speed Precip Events Conditions
12:15 AM 60.8 °F 59.0 °F 94% 29.93 in 10.0 mi SSE 5.8 mph - N/A   Clear
12:35 AM 60.8 °F 59.0 °F 94% 29.93 in 10.0 mi South 8.1 mph - N/A   Clear
12:55 AM 62.6 °F 57.2 °F 82% 29.93 in 10.0 mi South 6.9 mph - N/A   Clear
1:15 AM 62.6 °F 57.2 °F 82% 29.93 in 10.0 mi South 8.1 mph - N/A   Clear
1:35 AM 60.8 °F 57.2 °F 88% 29.92 in 10.0 mi SSE 5.8 mph - N/A   Clear
1:55 AM 60.8 °F 57.2 °F 88% 29.92 in 10.0 mi South 5.8 mph - N/A   Clear
2:16 AM 60.8 °F 57.2 °F 88% 29.92 in 10.0 mi South 5.8 mph - N/A   Clear
2:35 AM 60.8 °F 57.2 °F 88% 29.92 in 10.0 mi South 5.8 mph - N/A   Clear
2:55 AM 59.0 °F 57.2 °F 94% 29.92 in 10.0 mi SSE 5.8 mph - N/A   Clear
3:15 AM 59.0 °F 57.2 °F 94% 29.92 in 10.0 mi South 5.8 mph - N/A   Clear
3:35 AM 59.0 °F 57.2 °F 94% 29.92 in 10.0 mi South 8.1 mph - N/A   Clear
3:55 AM 60.8 °F 57.2 °F 88% 29.92 in 10.0 mi South 8.1 mph - N/A   Clear
4:15 AM 60.8 °F 57.2 °F 88% 29.92 in 10.0 mi South 6.9 mph - N/A   Clear
4:35 AM 60.8 °F 59.0 °F 94% 29.92 in 10.0 mi South 8.1 mph - N/A   Clear
4:55 AM 60.8 °F 59.0 °F 94% 29.93 in 10.0 mi South 9.2 mph - N/A   Clear
5:15 AM 60.8 °F 59.0 °F 94% 29.94 in 10.0 mi South 8.1 mph - N/A   Clear
5:35 AM 60.8 °F 59.0 °F 94% 29.94 in 7.0 mi South 8.1 mph - N/A   Clear
5:55 AM 60.8 °F 59.0 °F 94% 29.94 in 6.0 mi SSE 8.1 mph - N/A   Clear
6:15 AM 60.8 °F 59.0 °F 94% 29.95 in 5.0 mi SSE 9.2 mph - N/A   Clear
6:35 AM 60.8 °F 59.0 °F 94% 29.96 in 6.0 mi SSE 8.1 mph - N/A   Scattered Clouds
6:55 AM 60.8 °F 59.0 °F 94% 29.96 in 6.0 mi SSE 8.1 mph - N/A   Mostly Cloudy
7:35 AM 62.6 °F 60.8 °F 94% 29.96 in 10.0 mi SSE 9.2 mph - N/A   Overcast
7:55 AM 62.6 °F 60.8 °F 94% 29.96 in 10.0 mi SSE 10.4 mph - N/A   Overcast
8:15 AM 62.6 °F 62.6 °F 100% 29.97 in 10.0 mi South 11.5 mph - N/A   Overcast
8:35 AM 64.4 °F 62.6 °F 94% 29.97 in 10.0 mi SSE 6.9 mph - N/A   Overcast
8:55 AM 64.4 °F 62.6 °F 94% 29.98 in 10.0 mi SSE 10.4 mph - N/A   Overcast
9:15 AM 66.2 °F 64.4 °F 94% 29.98 in 10.0 mi South 9.2 mph - N/A   Overcast
9:35 AM 66.2 °F 64.4 °F 94% 29.98 in 10.0 mi South 10.4 mph 16.1 mph N/A   Overcast
9:55 AM 66.2 °F 64.4 °F 94% 29.98 in 10.0 mi South 9.2 mph - N/A   Overcast
10:35 AM 68.0 °F 66.2 °F 94% 29.97 in 10.0 mi South 13.8 mph 18.4 mph N/A   Overcast
10:55 AM 69.8 °F 66.2 °F 88% 29.96 in 10.0 mi South 9.2 mph - N/A   Overcast
11:15 AM 69.8 °F 66.2 °F 88% 29.96 in 10.0 mi South 10.4 mph 16.1 mph N/A   Overcast
11:35 AM 69.8 °F 66.2 °F 88% 29.95 in 10.0 mi South 10.4 mph - N/A   Overcast
11:55 AM 69.8 °F 66.2 °F 88% 29.93 in 10.0 mi South 10.4 mph - N/A   Overcast
12:15 PM 71.6 °F 66.2 °F 83% 29.92 in 10.0 mi South 11.5 mph - N/A   Overcast
12:35 PM 71.6 °F 66.2 °F 83% 29.91 in 10.0 mi SSE 8.1 mph - N/A   Overcast
12:55 PM 73.4 °F 68.0 °F 83% 29.89 in 10.0 mi South 10.4 mph - N/A   Mostly Cloudy
1:16 PM 75.2 °F 68.0 °F 78% 29.88 in 10.0 mi South 13.8 mph 17.3 mph N/A   Mostly Cloudy
1:35 PM 75.2 °F 68.0 °F 78% 29.87 in 10.0 mi South 9.2 mph - N/A   Overcast
1:55 PM 75.2 °F 66.2 °F 73% 29.87 in 10.0 mi SSW 8.1 mph - N/A   Mostly Cloudy
2:15 PM 75.2 °F 66.2 °F 73% 29.86 in 10.0 mi South 4.6 mph - N/A   Mostly Cloudy
2:35 PM 69.8 °F 64.4 °F 83% 29.87 in 2.5 mi SSW 9.2 mph 29.9 mph 0.19 in   Overcast
3:55 PM 73.4 °F 69.8 °F 88% 29.86 in 10.0 mi South 9.2 mph - N/A   Unknown
4:15 PM 73.4 °F 66.2 °F 78% 29.86 in 10.0 mi South 6.9 mph - N/A   Clear
4:35 PM 73.4 °F 66.2 °F 78% 29.86 in 10.0 mi South 8.1 mph - N/A   Clear
4:55 PM 71.6 °F 66.2 °F 83% 29.85 in 10.0 mi South 9.2 mph - N/A   Clear
5:15 PM 71.6 °F 66.2 °F 83% 29.85 in 10.0 mi South 8.1 mph - N/A   Clear
5:35 PM 71.6 °F 64.4 °F 78% 29.86 in 10.0 mi South 9.2 mph - N/A   Clear
5:55 PM 71.6 °F 64.4 °F 78% 29.85 in 10.0 mi South 8.1 mph - N/A   Clear
6:15 PM 71.6 °F 64.4 °F 78% 29.85 in 10.0 mi South 6.9 mph - N/A   Clear
6:35 PM 69.8 °F 64.4 °F 83% 29.85 in 10.0 mi South 5.8 mph - N/A   Clear
6:55 PM 69.8 °F 64.4 °F 83% 29.85 in 10.0 mi South 6.9 mph - N/A   Clear
7:15 PM 69.8 °F 64.4 °F 83% 29.85 in 10.0 mi South 9.2 mph - N/A   Clear
7:35 PM 69.8 °F 64.4 °F 83% 29.85 in 10.0 mi South 9.2 mph - N/A   Clear
7:55 PM 69.8 °F 64.4 °F 83% 29.84 in 10.0 mi South 10.4 mph - N/A   Clear
8:15 PM 69.8 °F 64.4 °F 83% 29.85 in 10.0 mi South 10.4 mph - N/A   Clear
8:35 PM 69.8 °F 64.4 °F 83% 29.84 in 10.0 mi South 11.5 mph 17.3 mph N/A   Clear
8:55 PM 69.8 °F 66.2 °F 88% 29.85 in 10.0 mi South 9.2 mph - N/A   Clear
9:15 PM 69.8 °F 66.2 °F 88% 29.86 in 10.0 mi South 8.1 mph - N/A   Partly Cloudy
9:35 PM 69.8 °F 66.2 °F 88% 29.86 in 10.0 mi South 6.9 mph - N/A   Partly Cloudy
9:55 PM 69.8 °F 66.2 °F 88% 29.86 in 10.0 mi South 9.2 mph - N/A   Clear
10:35 PM 69.8 °F 66.2 °F 88% 29.87 in 10.0 mi South 8.1 mph - N/A   Mostly Cloudy
10:55 PM 69.8 °F 66.2 °F 88% 29.87 in 10.0 mi South 6.9 mph - N/A   Overcast
11:15 PM 69.8 °F 66.2 °F 88% 29.87 in 10.0 mi South 6.9 mph - N/A   Overcast
11:35 PM 69.8 °F 66.2 °F 88% 29.87 in 10.0 mi SSW 8.1 mph - N/A   Overcast
11:55 PM 69.8 °F 68.0 °F 94% 29.86 in 10.0 mi South 6.9 mph - N/A   Overcast